Hurlburt Field, FL

1:21 AM CDT on October 22, 2014 (GMT -0500)
Hurlburt | Change Station
CLOSE
Current Station
Airport
Location: Hurlburt Field,
Elevation: 39 ft
Nearby Weather Stations

Elev 39 ft 30.43 °N, 86.69 °W | Updated 23 minutes ago

Clear
Clear
60 °F
Feels Like 60 °F
N
6
Wind Variable Wind from North

Today
High -- | Low -- °F
--% Chance of Precip.
Yesterday
High -- | Low -- °F
Precip. -- in
6:53 AM 6:08 PM
Waning Crescent, 3% visible
Pressure 30.00 in
Visibility 10.0 miles
Clouds Clear
Dew Point 51 °F
Humidity 73%
Rainfall 0.00 in
Snow Depth Not available.
UV 0 out of 12
Pollen 4.00 out of 12
PM2.5 Moderate
Flu Activity Local Activity
METAR KHRT 220558Z AUTO 36005KT 10SM CLR 15/11 A2999 RMK AO2 SLP157 T01540105 10199 20141 402710114 58004 RVRNO $

More Conditions Fewer Conditions

Pressure 30.00 in
Visibility 10.0 miles
Clouds Clear
Dew Point 51 °F
Humidity 73%
Rainfall 0.00 in
Snow Depth Not available.
UV 0 out of 12
Pollen 4.00 out of 12
PM2.5 Moderate
Flu Activity Local Activity
METAR KHRT 220558Z AUTO 36005KT 10SM CLR 15/11 A2999 RMK AO2 SLP157 T01540105 10199 20141 402710114 58004 RVRNO $

More Conditions Fewer Conditions

10-Day Weather Forecast

Almanac

Astronomy

Oct. 22, 2014 Rise Set
Actual Time 6:53 AM CDT 6:08 PM CDT
Civil Twilight 6:29 AM CDT 6:32 PM CDT
Nautical Twilight 6:01 AM CDT 7:00 PM CDT
Astronomical Twilight 5:33 AM CDT 7:28 PM CDT
Moon 5:39 AM CDT 5:31 PM CDT
Length of Visible Light 12h 03m
Length of Day
11h 14m
Tomorrow will be 1m 43s shorter.
Waning Crescent, 3% of the Moon is Illuminated
Today
Waning Crescent
Oct 23
New
Oct 30
First Quarter
Nov 6
Full
Nov 14
Last Quarter

Today's Extremes

State Highs State Lows

Community

WunderPhotos

Upload Photos

1,763,885 photos uploaded!

Nearby

Air Quality

  Air Quality AQ Index Pollutant
Yesterday Moderate
PM2.5
Current Moderate
PM2.5
Wednesday Moderate
PM2.5
Wednesday Good
OZONE

Snow Depth

Station Depth Elevation
No new snow has been reported.

Earthquake Activity

City Distance Mag. Time & Date
No recent earthquake activity has been reported nearby.
Minimum magnitude displayed is 2.5.

Coastal Water Temperatures

Place Temperature
No Stations Reporting

Nearby Weather Stations